sensor_id;sensor_type;location;lat;lon;timestamp;P1;durP1;ratioP1;P2;durP2;ratioP2
61373;SDS011;47242;48.158;-1.586;2023-08-01T04:31:19;20.38;;;4.40;;
61373;SDS011;47242;48.158;-1.586;2023-08-01T04:33:45;14.27;;;4.88;;
61373;SDS011;47242;48.158;-1.586;2023-08-01T04:36:10;16.00;;;4.65;;
61373;SDS011;47242;48.158;-1.586;2023-08-01T04:38:36;12.13;;;4.57;;
61373;SDS011;47242;48.158;-1.586;2023-08-01T04:41:01;19.70;;;4.78;;
61373;SDS011;47242;48.158;-1.586;2023-08-01T04:43:28;17.88;;;4.82;;
61373;SDS011;47242;48.158;-1.586;2023-08-01T04:45:53;17.13;;;5.38;;
61373;SDS011;47242;48.158;-1.586;2023-08-01T04:48:19;25.17;;;5.72;;
61373;SDS011;47242;48.158;-1.586;2023-08-01T04:50:44;18.45;;;5.10;;
61373;SDS011;47242;48.158;-1.586;2023-08-01T04:53:10;18.58;;;4.60;;
61373;SDS011;47242;48.158;-1.586;2023-08-01T04:55:36;16.90;;;4.72;;
61373;SDS011;47242;48.158;-1.586;2023-08-01T04:58:02;16.90;;;4.78;;
61373;SDS011;47242;48.158;-1.586;2023-08-01T05:00:27;15.23;;;4.40;;
61373;SDS011;47242;48.158;-1.586;2023-08-01T05:02:53;15.43;;;4.55;;
61373;SDS011;47242;48.158;-1.586;2023-08-01T05:05:18;17.52;;;4.93;;
61373;SDS011;47242;48.158;-1.586;2023-08-01T05:07:44;15.95;;;5.40;;
61373;SDS011;47242;48.158;-1.586;2023-08-01T05:10:10;18.65;;;5.07;;
61373;SDS011;47242;48.158;-1.586;2023-08-01T05:12:35;17.73;;;4.85;;
61373;SDS011;47242;48.158;-1.586;2023-08-01T05:15:01;14.60;;;4.85;;
61373;SDS011;47242;48.158;-1.586;2023-08-01T05:17:27;19.38;;;5.10;;
61373;SDS011;47242;48.158;-1.586;2023-08-01T05:19:53;14.18;;;4.63;;
61373;SDS011;47242;48.158;-1.586;2023-08-01T05:22:20;14.30;;;5.25;;
61373;SDS011;47242;48.158;-1.586;2023-08-01T05:24:46;15.15;;;4.90;;
61373;SDS011;47242;48.158;-1.586;2023-08-01T05:27:11;14.30;;;5.10;;
61373;SDS011;47242;48.158;-1.586;2023-08-01T05:29:37;23.90;;;5.80;;
61373;SDS011;47242;48.158;-1.586;2023-08-01T05:32:03;16.50;;;5.10;;
61373;SDS011;47242;48.158;-1.586;2023-08-01T05:34:28;17.30;;;4.97;;
61373;SDS011;47242;48.158;-1.586;2023-08-01T05:36:54;14.13;;;4.82;;
61373;SDS011;47242;48.158;-1.586;2023-08-01T05:39:20;18.70;;;5.43;;
61373;SDS011;47242;48.158;-1.586;2023-08-01T05:41:45;18.80;;;5.05;;
61373;SDS011;47242;48.158;-1.586;2023-08-01T05:44:11;14.55;;;5.32;;
61373;SDS011;47242;48.158;-1.586;2023-08-01T05:46:37;14.68;;;5.55;;
61373;SDS011;47242;48.158;-1.586;2023-08-01T05:49:02;13.15;;;5.30;;
61373;SDS011;47242;48.158;-1.586;2023-08-01T05:51:28;19.10;;;6.22;;
61373;SDS011;47242;48.158;-1.586;2023-08-01T05:53:53;18.58;;;5.50;;
61373;SDS011;47242;48.158;-1.586;2023-08-01T05:56:19;24.45;;;5.50;;
61373;SDS011;47242;48.158;-1.586;2023-08-01T05:58:45;18.10;;;5.50;;
61373;SDS011;47242;48.158;-1.586;2023-08-01T06:01:10;17.13;;;5.03;;
61373;SDS011;47242;48.158;-1.586;2023-08-01T06:03:37;18.33;;;5.00;;
61373;SDS011;47242;48.158;-1.586;2023-08-01T06:06:03;17.98;;;5.63;;
61373;SDS011;47242;48.158;-1.586;2023-08-01T06:08:29;18.38;;;5.57;;
61373;SDS011;47242;48.158;-1.586;2023-08-01T06:10:55;16.73;;;5.03;;
61373;SDS011;47242;48.158;-1.586;2023-08-01T06:13:20;19.00;;;5.40;;
61373;SDS011;47242;48.158;-1.586;2023-08-01T06:15:46;18.80;;;5.80;;
61373;SDS011;47242;48.158;-1.586;2023-08-01T06:18:12;26.30;;;6.47;;
61373;SDS011;47242;48.158;-1.586;2023-08-01T06:20:37;22.42;;;6.20;;
61373;SDS011;47242;48.158;-1.586;2023-08-01T06:23:03;17.80;;;5.25;;
61373;SDS011;47242;48.158;-1.586;2023-08-01T06:25:29;20.25;;;6.05;;
61373;SDS011;47242;48.158;-1.586;2023-08-01T06:27:54;24.73;;;5.90;;
61373;SDS011;47242;48.158;-1.586;2023-08-01T06:30:20;15.93;;;5.70;;
61373;SDS011;47242;48.158;-1.586;2023-08-01T06:32:46;25.02;;;6.60;;
61373;SDS011;47242;48.158;-1.586;2023-08-01T06:35:11;21.77;;;6.20;;
61373;SDS011;47242;48.158;-1.586;2023-08-01T06:37:37;25.77;;;6.97;;
61373;SDS011;47242;48.158;-1.586;2023-08-01T06:40:02;17.73;;;5.30;;
61373;SDS011;47242;48.158;-1.586;2023-08-01T06:42:29;24.88;;;5.80;;
61373;SDS011;47242;48.158;-1.586;2023-08-01T06:44:55;21.42;;;6.32;;
61373;SDS011;47242;48.158;-1.586;2023-08-01T06:47:20;27.13;;;5.63;;
61373;SDS011;47242;48.158;-1.586;2023-08-01T06:49:46;23.08;;;6.43;;
61373;SDS011;47242;48.158;-1.586;2023-08-01T06:52:11;23.77;;;6.13;;
61373;SDS011;47242;48.158;-1.586;2023-08-01T06:54:37;16.20;;;5.72;;
61373;SDS011;47242;48.158;-1.586;2023-08-01T06:57:04;19.55;;;5.55;;
61373;SDS011;47242;48.158;-1.586;2023-08-01T06:59:31;21.92;;;6.43;;
61373;SDS011;47242;48.158;-1.586;2023-08-01T07:01:56;19.17;;;6.13;;
61373;SDS011;47242;48.158;-1.586;2023-08-01T07:04:22;19.85;;;5.90;;
61373;SDS011;47242;48.158;-1.586;2023-08-01T07:06:48;19.88;;;5.47;;
61373;SDS011;47242;48.158;-1.586;2023-08-01T07:09:14;23.75;;;6.13;;
61373;SDS011;47242;48.158;-1.586;2023-08-01T07:11:40;23.20;;;6.38;;
61373;SDS011;47242;48.158;-1.586;2023-08-01T07:14:05;16.52;;;6.15;;
61373;SDS011;47242;48.158;-1.586;2023-08-01T07:16:31;14.40;;;5.72;;
61373;SDS011;47242;48.158;-1.586;2023-08-01T07:19:00;26.35;;;6.60;;
61373;SDS011;47242;48.158;-1.586;2023-08-01T07:21:26;16.85;;;5.50;;
61373;SDS011;47242;48.158;-1.586;2023-08-01T07:23:52;21.60;;;6.35;;
61373;SDS011;47242;48.158;-1.586;2023-08-01T07:26:17;19.02;;;5.95;;
61373;SDS011;47242;48.158;-1.586;2023-08-01T07:28:43;19.60;;;6.13;;
61373;SDS011;47242;48.158;-1.586;2023-08-01T07:31:09;16.67;;;5.78;;
61373;SDS011;47242;48.158;-1.586;2023-08-01T07:33:34;23.67;;;5.70;;
61373;SDS011;47242;48.158;-1.586;2023-08-01T07:36:00;14.00;;;5.35;;
61373;SDS011;47242;48.158;-1.586;2023-08-01T07:38:26;18.20;;;5.40;;
61373;SDS011;47242;48.158;-1.586;2023-08-01T07:40:52;19.95;;;5.47;;
61373;SDS011;47242;48.158;-1.586;2023-08-01T07:43:18;15.30;;;5.20;;
61373;SDS011;47242;48.158;-1.586;2023-08-01T07:45:44;18.17;;;5.25;;
61373;SDS011;47242;48.158;-1.586;2023-08-01T07:48:10;16.08;;;5.15;;
61373;SDS011;47242;48.158;-1.586;2023-08-01T07:50:36;20.02;;;5.93;;
61373;SDS011;47242;48.158;-1.586;2023-08-01T07:53:01;13.43;;;5.07;;
61373;SDS011;47242;48.158;-1.586;2023-08-01T07:55:27;14.82;;;5.47;;
61373;SDS011;47242;48.158;-1.586;2023-08-01T07:57:53;16.42;;;5.40;;
61373;SDS011;47242;48.158;-1.586;2023-08-01T08:00:18;18.70;;;5.88;;
61373;SDS011;47242;48.158;-1.586;2023-08-01T08:02:44;17.58;;;4.80;;
61373;SDS011;47242;48.158;-1.586;2023-08-01T08:05:10;19.77;;;6.43;;
61373;SDS011;47242;48.158;-1.586;2023-08-01T08:07:37;17.63;;;5.90;;
61373;SDS011;47242;48.158;-1.586;2023-08-01T08:10:05;16.63;;;5.75;;
61373;SDS011;47242;48.158;-1.586;2023-08-01T08:12:32;18.63;;;5.07;;
61373;SDS011;47242;48.158;-1.586;2023-08-01T08:14:58;17.27;;;5.90;;
61373;SDS011;47242;48.158;-1.586;2023-08-01T08:17:23;14.13;;;5.10;;
61373;SDS011;47242;48.158;-1.586;2023-08-01T08:19:49;17.65;;;5.00;;
61373;SDS011;47242;48.158;-1.586;2023-08-01T08:22:14;14.18;;;5.43;;
61373;SDS011;47242;48.158;-1.586;2023-08-01T08:24:40;12.40;;;4.45;;
61373;SDS011;47242;48.158;-1.586;2023-08-01T08:27:06;18.52;;;5.68;;
61373;SDS011;47242;48.158;-1.586;2023-08-01T08:29:32;15.52;;;5.07;;
61373;SDS011;47242;48.158;-1.586;2023-08-01T08:31:58;16.63;;;7.20;;
61373;SDS011;47242;48.158;-1.586;2023-08-01T08:34:24;15.93;;;6.05;;
61373;SDS011;47242;48.158;-1.586;2023-08-01T08:36:49;16.48;;;4.82;;
61373;SDS011;47242;48.158;-1.586;2023-08-01T08:39:16;17.50;;;5.75;;
61373;SDS011;47242;48.158;-1.586;2023-08-01T08:41:45;14.77;;;5.20;;
61373;SDS011;47242;48.158;-1.586;2023-08-01T08:44:16;14.27;;;4.75;;
61373;SDS011;47242;48.158;-1.586;2023-08-01T08:46:43;13.25;;;5.18;;
61373;SDS011;47242;48.158;-1.586;2023-08-01T08:49:10;14.00;;;5.10;;
61373;SDS011;47242;48.158;-1.586;2023-08-01T08:51:36;16.15;;;5.30;;
61373;SDS011;47242;48.158;-1.586;2023-08-01T08:54:06;17.05;;;5.80;;
61373;SDS011;47242;48.158;-1.586;2023-08-01T08:56:33;14.18;;;5.57;;
61373;SDS011;47242;48.158;-1.586;2023-08-01T08:59:00;17.30;;;5.53;;
61373;SDS011;47242;48.158;-1.586;2023-08-01T09:01:26;17.88;;;5.38;;
61373;SDS011;47242;48.158;-1.586;2023-08-01T09:03:52;13.00;;;4.82;;
61373;SDS011;47242;48.158;-1.586;2023-08-01T09:06:24;14.02;;;4.95;;
61373;SDS011;47242;48.158;-1.586;2023-08-01T09:11:35;15.35;;;4.90;;
61373;SDS011;47242;48.158;-1.586;2023-08-01T09:14:13;14.52;;;5.18;;
61373;SDS011;47242;48.158;-1.586;2023-08-01T09:16:40;13.63;;;4.50;;
61373;SDS011;47242;48.158;-1.586;2023-08-01T09:19:06;12.65;;;5.25;;
61373;SDS011;47242;48.158;-1.586;2023-08-01T09:21:32;18.85;;;4.53;;
61373;SDS011;47242;48.158;-1.586;2023-08-01T09:24:08;12.02;;;4.22;;
61373;SDS011;47242;48.158;-1.586;2023-08-01T09:26:41;11.90;;;4.53;;
61373;SDS011;47242;48.158;-1.586;2023-08-01T09:29:07;12.05;;;4.68;;
61373;SDS011;47242;48.158;-1.586;2023-08-01T09:31:43;13.85;;;4.00;;
61373;SDS011;47242;48.158;-1.586;2023-08-01T09:34:18;12.43;;;4.32;;
61373;SDS011;47242;48.158;-1.586;2023-08-01T09:36:45;13.18;;;4.63;;
61373;SDS011;47242;48.158;-1.586;2023-08-01T09:39:15;16.15;;;4.78;;
61373;SDS011;47242;48.158;-1.586;2023-08-01T09:41:42;14.35;;;4.80;;
61373;SDS011;47242;48.158;-1.586;2023-08-01T09:44:11;17.42;;;5.32;;
61373;SDS011;47242;48.158;-1.586;2023-08-01T09:46:37;12.60;;;4.28;;
61373;SDS011;47242;48.158;-1.586;2023-08-01T09:49:09;14.93;;;5.40;;
61373;SDS011;47242;48.158;-1.586;2023-08-01T09:51:46;14.68;;;4.43;;
61373;SDS011;47242;48.158;-1.586;2023-08-01T09:54:15;11.90;;;4.72;;
61373;SDS011;47242;48.158;-1.586;2023-08-01T09:56:44;16.55;;;4.65;;
61373;SDS011;47242;48.158;-1.586;2023-08-01T09:59:11;14.30;;;4.88;;
61373;SDS011;47242;48.158;-1.586;2023-08-01T10:01:38;15.15;;;5.10;;
61373;SDS011;47242;48.158;-1.586;2023-08-01T10:04:05;18.05;;;4.50;;
61373;SDS011;47242;48.158;-1.586;2023-08-01T10:06:34;13.50;;;4.65;;
61373;SDS011;47242;48.158;-1.586;2023-08-01T10:09:02;20.63;;;5.13;;
61373;SDS011;47242;48.158;-1.586;2023-08-01T10:11:29;14.15;;;4.78;;
61373;SDS011;47242;48.158;-1.586;2023-08-01T10:13:58;15.07;;;4.53;;
61373;SDS011;47242;48.158;-1.586;2023-08-01T10:16:27;19.02;;;5.05;;
61373;SDS011;47242;48.158;-1.586;2023-08-01T10:18:54;12.30;;;4.97;;
61373;SDS011;47242;48.158;-1.586;2023-08-01T10:21:20;14.45;;;4.85;;
61373;SDS011;47242;48.158;-1.586;2023-08-01T10:23:46;12.98;;;4.63;;
61373;SDS011;47242;48.158;-1.586;2023-08-01T10:26:13;11.50;;;4.38;;
61373;SDS011;47242;48.158;-1.586;2023-08-01T10:28:40;12.48;;;4.50;;
61373;SDS011;47242;48.158;-1.586;2023-08-01T10:31:14;13.48;;;4.85;;
61373;SDS011;47242;48.158;-1.586;2023-08-01T10:33:42;12.88;;;4.53;;
61373;SDS011;47242;48.158;-1.586;2023-08-01T10:36:12;11.15;;;4.07;;
61373;SDS011;47242;48.158;-1.586;2023-08-01T10:38:52;15.13;;;4.45;;
61373;SDS011;47242;48.158;-1.586;2023-08-01T10:41:27;14.65;;;4.47;;
61373;SDS011;47242;48.158;-1.586;2023-08-01T10:44:10;16.33;;;4.90;;
61373;SDS011;47242;48.158;-1.586;2023-08-01T10:49:38;14.73;;;4.57;;
61373;SDS011;47242;48.158;-1.586;2023-08-01T10:52:17;13.00;;;4.37;;
61373;SDS011;47242;48.158;-1.586;2023-08-01T10:54:45;11.70;;;4.90;;
61373;SDS011;47242;48.158;-1.586;2023-08-01T10:57:17;13.88;;;4.82;;
61373;SDS011;47242;48.158;-1.586;2023-08-01T10:59:43;11.70;;;4.50;;
61373;SDS011;47242;48.158;-1.586;2023-08-01T11:02:10;18.40;;;5.55;;
61373;SDS011;47242;48.158;-1.586;2023-08-01T11:04:35;12.25;;;4.63;;
61373;SDS011;47242;48.158;-1.586;2023-08-01T11:07:01;13.25;;;5.35;;
61373;SDS011;47242;48.158;-1.586;2023-08-01T11:09:29;12.13;;;4.43;;
61373;SDS011;47242;48.158;-1.586;2023-08-01T11:11:55;12.57;;;5.57;;
61373;SDS011;47242;48.158;-1.586;2023-08-01T11:14:23;20.40;;;4.82;;
61373;SDS011;47242;48.158;-1.586;2023-08-01T11:16:56;11.25;;;4.18;;
61373;SDS011;47242;48.158;-1.586;2023-08-01T11:21:53;15.07;;;4.70;;
61373;SDS011;47242;48.158;-1.586;2023-08-01T11:24:22;11.85;;;4.45;;
61373;SDS011;47242;48.158;-1.586;2023-08-01T11:26:50;14.95;;;4.30;;
61373;SDS011;47242;48.158;-1.586;2023-08-01T11:29:17;11.45;;;4.63;;
61373;SDS011;47242;48.158;-1.586;2023-08-01T11:31:57;12.55;;;4.60;;
61373;SDS011;47242;48.158;-1.586;2023-08-01T11:34:25;14.73;;;5.10;;
61373;SDS011;47242;48.158;-1.586;2023-08-01T11:36:51;13.00;;;4.50;;
61373;SDS011;47242;48.158;-1.586;2023-08-01T11:39:17;12.13;;;4.53;;
61373;SDS011;47242;48.158;-1.586;2023-08-01T11:41:43;11.60;;;3.60;;
61373;SDS011;47242;48.158;-1.586;2023-08-01T11:44:10;12.52;;;4.47;;
61373;SDS011;47242;48.158;-1.586;2023-08-01T11:46:36;12.18;;;3.95;;
61373;SDS011;47242;48.158;-1.586;2023-08-01T11:49:03;15.68;;;4.78;;
61373;SDS011;47242;48.158;-1.586;2023-08-01T11:51:42;16.17;;;5.63;;
61373;SDS011;47242;48.158;-1.586;2023-08-01T11:54:09;14.30;;;4.72;;
61373;SDS011;47242;48.158;-1.586;2023-08-01T11:56:36;9.60;;;4.38;;
61373;SDS011;47242;48.158;-1.586;2023-08-01T11:59:16;8.93;;;4.43;;
61373;SDS011;47242;48.158;-1.586;2023-08-01T12:01:43;14.35;;;4.47;;
61373;SDS011;47242;48.158;-1.586;2023-08-01T12:04:10;13.43;;;4.13;;
61373;SDS011;47242;48.158;-1.586;2023-08-01T12:06:36;11.27;;;3.95;;
61373;SDS011;47242;48.158;-1.586;2023-08-01T12:09:08;14.50;;;4.30;;
61373;SDS011;47242;48.158;-1.586;2023-08-01T12:11:35;12.80;;;5.05;;
61373;SDS011;47242;48.158;-1.586;2023-08-01T12:14:02;12.27;;;4.50;;
61373;SDS011;47242;48.158;-1.586;2023-08-01T12:16:29;10.77;;;3.83;;
61373;SDS011;47242;48.158;-1.586;2023-08-01T12:18:55;8.75;;;3.22;;
61373;SDS011;47242;48.158;-1.586;2023-08-01T12:21:21;9.63;;;3.63;;
61373;SDS011;47242;48.158;-1.586;2023-08-01T12:23:47;12.05;;;3.88;;
61373;SDS011;47242;48.158;-1.586;2023-08-01T12:26:13;11.38;;;3.58;;
61373;SDS011;47242;48.158;-1.586;2023-08-01T12:28:38;11.57;;;3.92;;
61373;SDS011;47242;48.158;-1.586;2023-08-01T12:31:04;10.48;;;3.47;;
61373;SDS011;47242;48.158;-1.586;2023-08-01T12:33:30;12.50;;;4.75;;
61373;SDS011;47242;48.158;-1.586;2023-08-01T12:35:57;10.70;;;3.75;;
61373;SDS011;47242;48.158;-1.586;2023-08-01T12:38:23;10.23;;;3.70;;
61373;SDS011;47242;48.158;-1.586;2023-08-01T12:40:49;11.70;;;3.90;;
61373;SDS011;47242;48.158;-1.586;2023-08-01T12:43:14;9.18;;;3.90;;
61373;SDS011;47242;48.158;-1.586;2023-08-01T12:45:41;13.38;;;3.80;;
61373;SDS011;47242;48.158;-1.586;2023-08-01T12:48:07;11.35;;;3.72;;
61373;SDS011;47242;48.158;-1.586;2023-08-01T12:50:33;8.60;;;3.58;;
61373;SDS011;47242;48.158;-1.586;2023-08-01T12:52:58;12.52;;;3.60;;
61373;SDS011;47242;48.158;-1.586;2023-08-01T12:55:24;10.48;;;3.95;;
61373;SDS011;47242;48.158;-1.586;2023-08-01T12:57:50;10.05;;;4.00;;
61373;SDS011;47242;48.158;-1.586;2023-08-01T13:00:15;9.43;;;3.80;;
61373;SDS011;47242;48.158;-1.586;2023-08-01T13:02:41;9.27;;;3.35;;
61373;SDS011;47242;48.158;-1.586;2023-08-01T13:05:07;12.20;;;3.55;;
61373;SDS011;47242;48.158;-1.586;2023-08-01T13:07:33;10.40;;;4.07;;
61373;SDS011;47242;48.158;-1.586;2023-08-01T13:09:59;10.43;;;3.72;;
61373;SDS011;47242;48.158;-1.586;2023-08-01T13:12:25;13.48;;;4.15;;
61373;SDS011;47242;48.158;-1.586;2023-08-01T13:14:51;10.35;;;3.45;;
61373;SDS011;47242;48.158;-1.586;2023-08-01T13:17:16;12.80;;;3.97;;
61373;SDS011;47242;48.158;-1.586;2023-08-01T13:19:42;10.65;;;3.40;;
61373;SDS011;47242;48.158;-1.586;2023-08-01T13:22:07;13.63;;;4.07;;
61373;SDS011;47242;48.158;-1.586;2023-08-01T13:24:33;10.27;;;4.95;;
61373;SDS011;47242;48.158;-1.586;2023-08-01T13:26:59;16.15;;;4.15;;
61373;SDS011;47242;48.158;-1.586;2023-08-01T13:29:24;9.32;;;3.20;;
61373;SDS011;47242;48.158;-1.586;2023-08-01T13:31:50;7.85;;;2.97;;
61373;SDS011;47242;48.158;-1.586;2023-08-01T13:34:15;11.55;;;3.80;;
61373;SDS011;47242;48.158;-1.586;2023-08-01T13:36:42;10.48;;;4.05;;
61373;SDS011;47242;48.158;-1.586;2023-08-01T13:39:08;9.57;;;3.70;;
61373;SDS011;47242;48.158;-1.586;2023-08-01T13:41:34;9.20;;;3.15;;
61373;SDS011;47242;48.158;-1.586;2023-08-01T13:44:00;12.15;;;3.83;;
61373;SDS011;47242;48.158;-1.586;2023-08-01T13:46:26;13.75;;;4.30;;
61373;SDS011;47242;48.158;-1.586;2023-08-01T13:48:51;9.15;;;3.28;;
61373;SDS011;47242;48.158;-1.586;2023-08-01T13:51:17;16.63;;;4.30;;
61373;SDS011;47242;48.158;-1.586;2023-08-01T13:53:42;13.55;;;4.60;;
61373;SDS011;47242;48.158;-1.586;2023-08-01T13:56:09;14.82;;;4.47;;
61373;SDS011;47242;48.158;-1.586;2023-08-01T13:58:35;15.65;;;4.15;;
61373;SDS011;47242;48.158;-1.586;2023-08-01T14:01:05;12.32;;;4.10;;
61373;SDS011;47242;48.158;-1.586;2023-08-01T14:03:32;11.38;;;4.22;;
61373;SDS011;47242;48.158;-1.586;2023-08-01T14:06:08;12.02;;;4.68;;
61373;SDS011;47242;48.158;-1.586;2023-08-01T14:08:36;10.35;;;4.47;;
61373;SDS011;47242;48.158;-1.586;2023-08-01T14:11:02;14.00;;;4.45;;
61373;SDS011;47242;48.158;-1.586;2023-08-01T14:13:29;13.10;;;4.65;;
61373;SDS011;47242;48.158;-1.586;2023-08-01T14:15:54;11.02;;;3.97;;
61373;SDS011;47242;48.158;-1.586;2023-08-01T14:18:20;13.13;;;4.28;;
61373;SDS011;47242;48.158;-1.586;2023-08-01T14:20:46;12.32;;;4.90;;
61373;SDS011;47242;48.158;-1.586;2023-08-01T14:23:11;12.02;;;4.60;;
61373;SDS011;47242;48.158;-1.586;2023-08-01T14:25:37;17.38;;;5.15;;
61373;SDS011;47242;48.158;-1.586;2023-08-01T14:28:03;15.38;;;5.28;;
61373;SDS011;47242;48.158;-1.586;2023-08-01T14:30:29;16.38;;;4.95;;
61373;SDS011;47242;48.158;-1.586;2023-08-01T14:33:05;13.70;;;4.60;;
61373;SDS011;47242;48.158;-1.586;2023-08-01T14:35:34;15.77;;;4.80;;
61373;SDS011;47242;48.158;-1.586;2023-08-01T14:38:00;15.65;;;4.78;;
61373;SDS011;47242;48.158;-1.586;2023-08-01T14:40:27;19.63;;;5.68;;
61373;SDS011;47242;48.158;-1.586;2023-08-01T14:42:54;17.15;;;4.93;;
61373;SDS011;47242;48.158;-1.586;2023-08-01T14:45:19;17.45;;;4.57;;
61373;SDS011;47242;48.158;-1.586;2023-08-01T14:47:46;14.07;;;5.10;;
61373;SDS011;47242;48.158;-1.586;2023-08-01T14:50:12;12.77;;;5.18;;
61373;SDS011;47242;48.158;-1.586;2023-08-01T14:52:38;21.23;;;5.72;;
61373;SDS011;47242;48.158;-1.586;2023-08-01T14:55:04;22.67;;;5.82;;
61373;SDS011;47242;48.158;-1.586;2023-08-01T14:57:31;15.65;;;5.03;;
61373;SDS011;47242;48.158;-1.586;2023-08-01T14:59:56;14.98;;;5.15;;
61373;SDS011;47242;48.158;-1.586;2023-08-01T15:02:22;22.55;;;5.88;;
61373;SDS011;47242;48.158;-1.586;2023-08-01T15:04:55;16.40;;;5.68;;
61373;SDS011;47242;48.158;-1.586;2023-08-01T15:07:22;19.67;;;5.93;;
61373;SDS011;47242;48.158;-1.586;2023-08-01T15:09:48;17.65;;;6.07;;
61373;SDS011;47242;48.158;-1.586;2023-08-01T15:12:15;16.02;;;5.03;;
61373;SDS011;47242;48.158;-1.586;2023-08-01T15:14:51;20.65;;;5.32;;
61373;SDS011;47242;48.158;-1.586;2023-08-01T15:17:18;23.15;;;5.70;;
61373;SDS011;47242;48.158;-1.586;2023-08-01T15:19:44;16.65;;;5.65;;
61373;SDS011;47242;48.158;-1.586;2023-08-01T15:22:11;12.57;;;5.05;;
61373;SDS011;47242;48.158;-1.586;2023-08-01T15:24:40;15.68;;;5.07;;
61373;SDS011;47242;48.158;-1.586;2023-08-01T15:27:06;17.00;;;5.10;;
61373;SDS011;47242;48.158;-1.586;2023-08-01T15:29:32;20.08;;;5.55;;
61373;SDS011;47242;48.158;-1.586;2023-08-01T15:31:57;12.68;;;4.38;;
61373;SDS011;47242;48.158;-1.586;2023-08-01T15:34:23;13.98;;;4.70;;
61373;SDS011;47242;48.158;-1.586;2023-08-01T15:36:49;15.77;;;4.15;;
61373;SDS011;47242;48.158;-1.586;2023-08-01T15:39:15;17.65;;;4.35;;
61373;SDS011;47242;48.158;-1.586;2023-08-01T15:41:41;14.50;;;4.10;;
61373;SDS011;47242;48.158;-1.586;2023-08-01T15:44:08;10.10;;;4.07;;
61373;SDS011;47242;48.158;-1.586;2023-08-01T15:46:33;9.98;;;3.55;;
61373;SDS011;47242;48.158;-1.586;2023-08-01T15:48:59;13.10;;;4.18;;
61373;SDS011;47242;48.158;-1.586;2023-08-01T15:51:25;13.43;;;4.05;;
61373;SDS011;47242;48.158;-1.586;2023-08-01T15:53:52;12.88;;;4.00;;
61373;SDS011;47242;48.158;-1.586;2023-08-01T15:56:18;9.27;;;3.45;;
61373;SDS011;47242;48.158;-1.586;2023-08-01T15:58:43;10.27;;;3.40;;
61373;SDS011;47242;48.158;-1.586;2023-08-01T16:01:09;10.60;;;3.78;;
61373;SDS011;47242;48.158;-1.586;2023-08-01T16:03:36;13.18;;;3.72;;
61373;SDS011;47242;48.158;-1.586;2023-08-01T16:06:03;10.90;;;3.50;;
61373;SDS011;47242;48.158;-1.586;2023-08-01T16:08:29;10.60;;;3.20;;
61373;SDS011;47242;48.158;-1.586;2023-08-01T16:10:55;11.63;;;4.07;;
61373;SDS011;47242;48.158;-1.586;2023-08-01T16:13:21;10.25;;;3.65;;
61373;SDS011;47242;48.158;-1.586;2023-08-01T16:15:46;11.98;;;4.03;;
61373;SDS011;47242;48.158;-1.586;2023-08-01T16:18:14;9.75;;;4.18;;
61373;SDS011;47242;48.158;-1.586;2023-08-01T16:20:40;13.10;;;4.18;;
61373;SDS011;47242;48.158;-1.586;2023-08-01T16:23:05;11.52;;;4.03;;
61373;SDS011;47242;48.158;-1.586;2023-08-01T16:25:31;10.50;;;4.15;;
61373;SDS011;47242;48.158;-1.586;2023-08-01T16:27:57;16.52;;;4.35;;
61373;SDS011;47242;48.158;-1.586;2023-08-01T16:30:23;12.20;;;4.00;;
61373;SDS011;47242;48.158;-1.586;2023-08-01T16:32:49;12.55;;;3.95;;
61373;SDS011;47242;48.158;-1.586;2023-08-01T16:35:15;12.65;;;4.28;;
61373;SDS011;47242;48.158;-1.586;2023-08-01T16:37:41;10.75;;;3.33;;
61373;SDS011;47242;48.158;-1.586;2023-08-01T16:40:07;11.68;;;3.92;;
61373;SDS011;47242;48.158;-1.586;2023-08-01T16:42:34;13.52;;;4.47;;
61373;SDS011;47242;48.158;-1.586;2023-08-01T16:45:00;14.95;;;5.50;;
61373;SDS011;47242;48.158;-1.586;2023-08-01T16:47:26;15.65;;;4.32;;
61373;SDS011;47242;48.158;-1.586;2023-08-01T16:49:55;12.45;;;4.63;;
61373;SDS011;47242;48.158;-1.586;2023-08-01T16:52:21;13.55;;;4.20;;
61373;SDS011;47242;48.158;-1.586;2023-08-01T16:54:47;15.55;;;5.95;;
61373;SDS011;47242;48.158;-1.586;2023-08-01T16:57:13;17.45;;;5.13;;
61373;SDS011;47242;48.158;-1.586;2023-08-01T16:59:38;17.17;;;5.65;;
61373;SDS011;47242;48.158;-1.586;2023-08-01T17:02:07;15.35;;;5.13;;
61373;SDS011;47242;48.158;-1.586;2023-08-01T17:04:34;17.05;;;5.97;;
61373;SDS011;47242;48.158;-1.586;2023-08-01T17:07:01;14.90;;;5.28;;
61373;SDS011;47242;48.158;-1.586;2023-08-01T17:09:27;13.55;;;5.22;;
61373;SDS011;47242;48.158;-1.586;2023-08-01T17:11:53;17.42;;;5.38;;
61373;SDS011;47242;48.158;-1.586;2023-08-01T17:14:19;15.07;;;4.72;;
61373;SDS011;47242;48.158;-1.586;2023-08-01T17:16:45;13.13;;;5.80;;
61373;SDS011;47242;48.158;-1.586;2023-08-01T17:19:14;18.65;;;5.10;;
61373;SDS011;47242;48.158;-1.586;2023-08-01T17:21:40;17.30;;;5.55;;
61373;SDS011;47242;48.158;-1.586;2023-08-01T17:24:07;16.17;;;6.50;;
61373;SDS011;47242;48.158;-1.586;2023-08-01T17:26:33;18.92;;;5.53;;
61373;SDS011;47242;48.158;-1.586;2023-08-01T17:28:58;18.83;;;5.32;;
61373;SDS011;47242;48.158;-1.586;2023-08-01T17:31:24;15.57;;;5.65;;
61373;SDS011;47242;48.158;-1.586;2023-08-01T17:33:56;14.05;;;5.30;;
61373;SDS011;47242;48.158;-1.586;2023-08-01T17:36:23;16.77;;;5.25;;
61373;SDS011;47242;48.158;-1.586;2023-08-01T17:38:48;16.52;;;4.90;;
61373;SDS011;47242;48.158;-1.586;2023-08-01T17:41:21;18.52;;;5.82;;
61373;SDS011;47242;48.158;-1.586;2023-08-01T17:43:48;13.30;;;5.53;;
61373;SDS011;47242;48.158;-1.586;2023-08-01T17:46:14;15.25;;;5.60;;
61373;SDS011;47242;48.158;-1.586;2023-08-01T17:48:43;18.58;;;5.85;;
61373;SDS011;47242;48.158;-1.586;2023-08-01T17:51:09;17.23;;;5.05;;
61373;SDS011;47242;48.158;-1.586;2023-08-01T17:53:35;16.33;;;5.20;;
61373;SDS011;47242;48.158;-1.586;2023-08-01T17:56:04;11.05;;;3.92;;
61373;SDS011;47242;48.158;-1.586;2023-08-01T17:58:30;14.48;;;5.22;;
61373;SDS011;47242;48.158;-1.586;2023-08-01T18:00:57;18.10;;;5.05;;
61373;SDS011;47242;48.158;-1.586;2023-08-01T18:03:22;16.23;;;4.50;;
61373;SDS011;47242;48.158;-1.586;2023-08-01T18:05:48;12.45;;;4.28;;
61373;SDS011;47242;48.158;-1.586;2023-08-01T18:08:14;11.77;;;4.53;;
61373;SDS011;47242;48.158;-1.586;2023-08-01T18:10:39;15.88;;;4.82;;
61373;SDS011;47242;48.158;-1.586;2023-08-01T18:13:06;15.05;;;4.55;;
61373;SDS011;47242;48.158;-1.586;2023-08-01T18:15:38;12.63;;;4.30;;
61373;SDS011;47242;48.158;-1.586;2023-08-01T18:18:06;11.93;;;3.60;;
61373;SDS011;47242;48.158;-1.586;2023-08-01T18:20:32;11.65;;;3.40;;
61373;SDS011;47242;48.158;-1.586;2023-08-01T18:22:58;12.23;;;4.10;;
61373;SDS011;47242;48.158;-1.586;2023-08-01T18:25:24;8.38;;;3.25;;
61373;SDS011;47242;48.158;-1.586;2023-08-01T18:27:50;10.02;;;3.00;;
61373;SDS011;47242;48.158;-1.586;2023-08-01T18:30:15;11.50;;;4.53;;
61373;SDS011;47242;48.158;-1.586;2023-08-01T18:32:41;8.63;;;3.55;;
61373;SDS011;47242;48.158;-1.586;2023-08-01T18:35:07;10.48;;;3.38;;
61373;SDS011;47242;48.158;-1.586;2023-08-01T18:37:33;10.77;;;3.65;;
61373;SDS011;47242;48.158;-1.586;2023-08-01T18:39:58;10.20;;;3.67;;
61373;SDS011;47242;48.158;-1.586;2023-08-01T18:42:24;11.02;;;3.95;;
61373;SDS011;47242;48.158;-1.586;2023-08-01T18:44:50;8.80;;;3.90;;
61373;SDS011;47242;48.158;-1.586;2023-08-01T18:47:17;10.07;;;3.92;;
61373;SDS011;47242;48.158;-1.586;2023-08-01T18:49:42;11.60;;;3.70;;
61373;SDS011;47242;48.158;-1.586;2023-08-01T18:52:09;10.60;;;3.47;;
61373;SDS011;47242;48.158;-1.586;2023-08-01T18:54:35;15.13;;;3.40;;
61373;SDS011;47242;48.158;-1.586;2023-08-01T18:57:01;13.65;;;4.38;;
61373;SDS011;47242;48.158;-1.586;2023-08-01T18:59:27;8.77;;;3.60;;